Time;durP1;ratioP1;P1;durP2;ratioP2;P2;SDS_P1;SDS_P2;PMS_P1;PMS_P2;Temp;Humidity;BMP_temperature;BMP_pressure;BME280_temperature;BME280_humidity;BME280_pressure;Samples;Min_cycle;Max_cycle;Signal;HPM_P1;HPM_P2
2022/05/09 00:02:22;;;;;;;7.07;6.38;;;;;;;;;;5090572;28;20048;-58
2022/05/09 00:05:18;;;;;;;7.63;6.82;;;;;;;;;;5073186;28;20024;-58
2022/05/09 00:10:56;;;;;;;7.45;6.25;;;;;;;;;;5091140;28;20027;-58
2022/05/09 00:17:18;;;;;;;8.43;6.55;;;;;;;;;;5088712;28;20065;-58
2022/05/09 00:19:41;;;;;;;;;;;;;;;;;;;;;
2022/05/09 00:25:31;;;;;;;9.60;7.70;;;;;;;;;;5090396;28;20059;-58
2022/05/09 00:28:06;;;;;;;8.02;6.93;;;;;;;;;;5089965;28;20043;-58
2022/05/09 00:33:44;;;;;;;8.00;7.30;;;;;;;;;;5076067;28;20074;-58
2022/05/09 00:36:44;;;;;;;8.45;7.18;;;;;;;;;;5090134;28;20116;-58
2022/05/09 00:39:22;;;;;;;;;;;;;;;;;;;;;
2022/05/09 00:41:55;;;;;;;7.00;6.30;;;;;;;;;;5069785;28;20068;-58
2022/05/09 00:47:37;;;;;;;7.25;6.55;;;;;;;;;;5089586;28;20122;-58
2022/05/09 00:50:19;;;;;;;6.72;6.00;;;;;;;;;;5090494;28;20032;-58
2022/05/09 00:53:11;;;;;;;8.10;6.82;;;;;;;;;;5089671;28;20062;-58
2022/05/09 00:55:54;;;;;;;7.40;6.70;;;;;;;;;;5089090;28;20040;-58
2022/05/09 00:58:50;;;;;;;7.32;6.63;;;;;;;;;;5089358;28;20032;-58
2022/05/09 01:04:26;;;;;;;7.13;6.05;;;;;;;;;;5007438;28;20034;-58
2022/05/09 01:10:05;;;;;;;10.20;6.50;;;;;;;;;;5008580;28;20038;-58
2022/05/09 01:12:50;;;;;;;7.75;6.95;;;;;;;;;;5008384;28;20380;-58
2022/05/09 01:15:28;;;;;;;9.50;7.15;;;;;;;;;;5035627;28;20041;-58
2022/05/09 01:18:16;;;;;;;7.85;7.05;;;;;;;;;;5067466;28;20076;-58
2022/05/09 01:23:44;;;;;;;8.02;6.57;;;;;;;;;;5046845;28;20038;-58
2022/05/09 01:29:23;;;;;;;8.98;7.38;;;;;;;;;;5047831;28;20037;-58
2022/05/09 01:34:43;;;;;;;9.00;8.13;;;;;;;;;;5047276;28;20106;-58
2022/05/09 01:37:44;;;;;;;8.45;7.55;;;;;;;;;;5047135;28;20041;-58
2022/05/09 01:40:23;;;;;;;11.35;7.95;;;;;;;;;;5045884;28;20483;-58
2022/05/09 01:42:58;;;;;;;9.00;7.45;;;;;;;;;;5047631;28;20057;-58
2022/05/09 01:51:32;;;;;;;8.45;7.65;;;;;;;;;;5046692;28;20029;-58
2022/05/09 01:54:26;;;;;;;9.15;8.25;;;;;;;;;;5045318;28;20511;-58
2022/05/09 02:02:55;;;;;;;11.52;8.07;;;;;;;;;;5076553;28;20032;-58
2022/05/09 02:05:39;;;;;;;9.15;7.95;;;;;;;;;;5089859;28;20032;-58
2022/05/09 02:11:28;;;;;;;8.80;7.40;;;;;;;;;;5090013;28;20035;-58
2022/05/09 02:14:14;;;;;;;;;;;;;;;;;;;;;
2022/05/09 02:17:13;;;;;;;8.85;7.95;;;;;;;;;;5089152;28;20051;-58
2022/05/09 02:20:00;;;;;;;9.40;8.43;;;;;;;;;;5008182;28;20045;-58
2022/05/09 02:23:08;;;;;;;9.05;8.25;;;;;;;;;;5008300;28;20038;-58
2022/05/09 02:25:58;;;;;;;9.35;8.35;;;;;;;;;;4968619;29;20046;-58
2022/05/09 02:28:33;;;;;;;9.38;8.18;;;;;;;;;;5008579;28;20034;-58
2022/05/09 02:37:26;;;;;;;10.32;7.57;;;;;;;;;;5064938;28;20060;-58
2022/05/09 02:39:59;;;;;;;12.88;9.70;;;;;;;;;;5089069;28;20025;-58
2022/05/09 02:42:38;;;;;;;17.33;10.32;;;;;;;;;;5070847;28;20197;-58
2022/05/09 02:45:13;;;;;;;8.90;8.00;;;;;;;;;;5071393;28;20059;-58
2022/05/09 02:47:40;;;;;;;9.25;8.15;;;;;;;;;;5084477;28;20028;-58
2022/05/09 02:50:27;;;;;;;9.00;8.07;;;;;;;;;;5070571;28;20095;-58
2022/05/09 02:59:25;;;;;;;10.43;9.43;;;;;;;;;;5019960;28;20030;-58
2022/05/09 03:02:30;;;;;;;9.27;8.35;;;;;;;;;;5027181;28;20018;-58
2022/05/09 03:07:55;;;;;;;8.90;8.00;;;;;;;;;;5073353;28;20039;-58
2022/05/09 03:10:33;;;;;;;10.00;8.25;;;;;;;;;;5087708;28;20501;-58
2022/05/09 03:13:32;;;;;;;;;;;;;;;;;;;;;
2022/05/09 03:16:27;;;;;;;9.40;8.40;;;;;;;;;;5088234;28;20063;-58
2022/05/09 03:19:29;;;;;;;;;;;;;;;;;;;;;
2022/05/09 03:22:06;;;;;;;9.85;8.85;;;;;;;;;;5027977;28;20077;-58
2022/05/09 03:24:43;;;;;;;10.18;9.05;;;;;;;;;;5088377;28;20095;-58
2022/05/09 03:27:51;;;;;;;10.02;8.27;;;;;;;;;;5070114;28;20043;-58
2022/05/09 03:33:58;;;;;;;9.77;8.48;;;;;;;;;;5012488;28;20061;-58
2022/05/09 03:37:01;;;;;;;10.00;8.60;;;;;;;;;;5011197;28;20096;-58
2022/05/09 03:40:17;;;;;;;;;;;;;;;;;;;;;
2022/05/09 03:43:21;;;;;;;10.23;9.23;;;;;;;;;;4954656;29;20042;-58
2022/05/09 03:46:19;;;;;;;9.73;8.75;;;;;;;;;;4956696;29;20041;-58
2022/05/09 03:49:14;;;;;;;10.10;8.68;;;;;;;;;;4953386;29;20114;-58
2022/05/09 03:55:12;;;;;;;9.50;8.60;;;;;;;;;;5049493;28;20045;-58
2022/05/09 03:57:58;;;;;;;10.60;9.43;;;;;;;;;;5056620;28;20526;-58
2022/05/09 04:00:35;;;;;;;10.68;9.52;;;;;;;;;;5055089;28;20029;-58
2022/05/09 04:06:25;;;;;;;10.13;9.13;;;;;;;;;;5011782;28;20033;-58
2022/05/09 04:12:29;;;;;;;10.52;9.40;;;;;;;;;;5073279;28;20029;-58
2022/05/09 04:18:23;;;;;;;10.15;9.18;;;;;;;;;;5073355;28;20513;-58
2022/05/09 04:21:02;;;;;;;9.85;8.85;;;;;;;;;;5072891;28;20028;-59
2022/05/09 04:23:48;;;;;;;9.05;8.10;;;;;;;;;;5059636;28;20032;-58
2022/05/09 04:29:42;;;;;;;10.10;9.05;;;;;;;;;;5071190;28;20348;-58
2022/05/09 04:35:07;;;;;;;10.38;9.23;;;;;;;;;;5065782;28;20028;-59
2022/05/09 04:37:37;;;;;;;10.48;9.40;;;;;;;;;;5035244;28;20029;-60
2022/05/09 04:40:27;;;;;;;11.98;10.77;;;;;;;;;;5017536;28;20041;-59
2022/05/09 04:43:09;;;;;;;11.00;9.88;;;;;;;;;;5035801;28;20026;-60
2022/05/09 04:45:44;;;;;;;10.80;9.73;;;;;;;;;;5035073;28;20022;-59
2022/05/09 04:48:44;;;;;;;11.63;9.52;;;;;;;;;;5025238;28;20479;-60
2022/05/09 04:51:34;;;;;;;9.00;8.18;;;;;;;;;;5009996;28;20044;-59
2022/05/09 04:54:40;;;;;;;10.70;9.70;;;;;;;;;;5034439;28;20140;-60
2022/05/09 05:00:02;;;;;;;9.20;8.30;;;;;;;;;;5024247;28;20068;-60
2022/05/09 05:02:54;;;;;;;;;;;;;;;;;;;;;
2022/05/09 05:05:45;;;;;;;8.63;7.85;;;;;;;;;;4963876;28;20034;-59
2022/05/09 05:08:23;;;;;;;9.20;8.30;;;;;;;;;;4983571;28;20554;-59
2022/05/09 05:11:20;;;;;;;10.38;9.00;;;;;;;;;;5015319;28;20077;-59
2022/05/09 05:14:14;;;;;;;11.60;8.73;;;;;;;;;;5008288;28;20038;-59
2022/05/09 05:19:57;;;;;;;8.85;6.25;;;;;;;;;;5014578;28;20502;-59
2022/05/09 05:22:48;;;;;;;8.80;7.32;;;;;;;;;;5014428;28;20506;-59
2022/05/09 05:31:38;;;;;;;8.10;5.93;;;;;;;;;;5013086;28;20049;-59
2022/05/09 05:34:30;;;;;;;9.10;5.80;;;;;;;;;;5045270;28;20047;-59
2022/05/09 05:39:59;;;;;;;9.10;6.47;;;;;;;;;;5045589;28;20033;-59
2022/05/09 05:43:13;;;;;;;;;;;;;;;;;;;;;
2022/05/09 05:48:56;;;;;;;7.88;6.95;;;;;;;;;;5045435;28;20144;-59
2022/05/09 05:51:37;;;;;;;6.80;6.20;;;;;;;;;;5055278;28;20032;-59
2022/05/09 05:58:28;;;;;;;6.88;6.28;;;;;;;;;;5019437;28;20037;-59
2022/05/09 06:01:16;;;;;;;7.60;6.95;;;;;;;;;;5024401;28;20033;-59
2022/05/09 06:07:17;;;;;;;7.70;6.82;;;;;;;;;;5075345;28;20455;-59
2022/05/09 06:10:11;;;;;;;7.95;7.15;;;;;;;;;;5056567;28;20025;-59
2022/05/09 06:19:00;;;;;;;7.75;6.97;;;;;;;;;;5011931;28;20038;-58
2022/05/09 06:21:52;;;;;;;13.15;8.00;;;;;;;;;;5012820;28;20103;-58
2022/05/09 06:28:23;;;;;;;8.80;7.28;;;;;;;;;;4954001;29;20105;-58
2022/05/09 06:31:06;;;;;;;7.38;6.60;;;;;;;;;;4974113;28;20050;-58
2022/05/09 06:33:45;;;;;;;9.95;8.93;;;;;;;;;;5040659;28;20116;-58
2022/05/09 06:36:50;;;;;;;20.85;10.10;;;;;;;;;;5074364;28;20017;-58
2022/05/09 06:39:29;;;;;;;12.25;7.75;;;;;;;;;;5012898;28;20033;-58
2022/05/09 06:42:19;;;;;;;;;;;;;;;;;;;;;
2022/05/09 06:45:07;;;;;;;9.30;7.32;;;;;;;;;;4998348;28;20150;-58
2022/05/09 06:47:45;;;;;;;8.38;6.95;;;;;;;;;;5011674;28;20030;-58
2022/05/09 06:50:30;;;;;;;8.27;7.45;;;;;;;;;;5031859;28;20127;-59
2022/05/09 06:56:23;;;;;;;6.78;6.07;;;;;;;;;;5013592;28;20041;-59
2022/05/09 06:59:05;;;;;;;9.75;8.13;;;;;;;;;;5019296;28;20076;-59
2022/05/09 07:01:58;;;;;;;10.07;7.85;;;;;;;;;;5032877;28;20029;-58
2022/05/09 07:11:20;;;;;;;;;;;;;;;;;;;;;
2022/05/09 07:14:25;;;;;;;10.75;6.88;;;;;;;;;;5046538;28;20040;-58
2022/05/09 07:17:34;;;;;;;9.15;7.18;;;;;;;;;;5055219;28;20443;-57
2022/05/09 07:20:22;;;;;;;8.77;7.20;;;;;;;;;;5049619;28;20078;-58
2022/05/09 07:23:10;;;;;;;11.05;7.72;;;;;;;;;;5054251;28;20033;-59
2022/05/09 07:25:48;;;;;;;15.63;7.93;;;;;;;;;;5054254;28;20040;-59
2022/05/09 07:31:36;;;;;;;10.65;9.43;;;;;;;;;;5054312;28;20098;-58
2022/05/09 07:34:38;;;;;;;9.75;7.70;;;;;;;;;;5055419;28;20037;-58
2022/05/09 07:37:29;;;;;;;9.93;7.35;;;;;;;;;;5040606;28;20029;-59
2022/05/09 07:40:29;;;;;;;8.80;7.90;;;;;;;;;;5035869;28;20028;-58
2022/05/09 07:43:12;;;;;;;;;;;;;;;;;;;;;
2022/05/09 07:45:47;;;;;;;7.88;7.07;;;;;;;;;;5054948;28;20430;-58
2022/05/09 07:48:24;;;;;;;7.88;7.18;;;;;;;;;;5054988;28;20382;-59
2022/05/09 07:57:34;;;;;;;;;;;;;;;;;;;;;
2022/05/09 08:00:35;;;;;;;;;;;;;;;;;;;;;
2022/05/09 08:03:02;;;;;;;10.88;8.70;;;;;;;;;;5071960;28;20425;-59
2022/05/09 08:05:38;;;;;;;8.25;7.45;;;;;;;;;;5056232;28;20033;-58
2022/05/09 08:08:26;;;;;;;7.30;6.60;;;;;;;;;;5052598;28;20527;-58
2022/05/09 08:14:19;;;;;;;7.60;6.78;;;;;;;;;;4995178;28;20048;-58
2022/05/09 08:17:07;;;;;;;;;;;;;;;;;;;;;
2022/05/09 08:20:00;;;;;;;7.60;6.07;;;;;;;;;;5009931;28;20038;-58
2022/05/09 08:23:06;;;;;;;7.78;6.78;;;;;;;;;;5054708;28;20021;-58
2022/05/09 08:25:44;;;;;;;7.22;6.53;;;;;;;;;;5054692;28;20033;-58
2022/05/09 08:28:20;;;;;;;7.45;6.75;;;;;;;;;;4995904;28;20038;-58
2022/05/09 08:31:18;;;;;;;6.72;5.97;;;;;;;;;;4995055;28;20034;-59
2022/05/09 08:36:55;;;;;;;;;;;;;;;;;;5009103;28;20104;-58
2022/05/09 08:39:32;;;;;;;8.32;5.20;;;;;;;;;;5014690;28;19905;-58
2022/05/09 08:42:42;;;;;;;6.65;5.97;;;;;;;;;;4998793;28;20022;-58
2022/05/09 08:48:37;;;;;;;7.75;6.68;;;;;;;;;;4926498;29;20161;-58
2022/05/09 08:51:36;;;;;;;6.90;6.20;;;;;;;;;;4920885;29;20471;-58
2022/05/09 08:57:52;;;;;;;;;;;;;;;;;;;;;
2022/05/09 09:00:52;;;;;;;10.07;5.45;;;;;;;;;;4965725;28;20126;-59
2022/05/09 09:07:15;;;;;;;;;;;;;;;;;;;;;
2022/05/09 09:13:29;;;;;;;;;;;;;;;;;;;;;
2022/05/09 09:16:12;;;;;;;5.72;5.10;;;;;;;;;;5046330;28;20423;-58
2022/05/09 09:25:36;;;;;;;7.18;6.00;;;;;;;;;;5039589;28;20029;-59
2022/05/09 09:28:28;;;;;;;;;;;;;;;;;;;;;
2022/05/09 09:31:07;;;;;;;7.05;6.32;;;;;;;;;;5056097;28;20522;-59
2022/05/09 09:37:08;;;;;;;8.20;6.47;;;;;;;;;;5056093;28;20391;-59
2022/05/09 09:39:43;;;;;;;6.93;5.82;;;;;;;;;;5055938;28;20368;-59
2022/05/09 09:42:42;;;;;;;7.15;5.93;;;;;;;;;;5056612;28;20029;-59
2022/05/09 09:55:08;;;;;;;8.32;6.22;;;;;;;;;;4994644;28;20038;-59
2022/05/09 09:57:56;;;;;;;6.38;5.78;;;;;;;;;;4978225;28;20046;-59
2022/05/09 10:03:46;;;;;;;6.70;6.07;;;;;;;;;;4994448;28;20089;-59
2022/05/09 10:06:44;;;;;;;7.10;6.40;;;;;;;;;;5009871;28;20063;-59
2022/05/09 10:09:31;;;;;;;6.50;5.90;;;;;;;;;;4994164;28;20089;-59
2022/05/09 10:12:38;;;;;;;6.80;5.85;;;;;;;;;;5002514;28;20483;-59
2022/05/09 10:15:25;;;;;;;7.40;6.68;;;;;;;;;;4983252;28;20046;-59
2022/05/09 10:18:19;;;;;;;6.57;5.97;;;;;;;;;;4994136;28;20087;-59
2022/05/09 10:21:04;;;;;;;12.23;5.78;;;;;;;;;;4997428;28;20038;-58
2022/05/09 10:26:45;;;;;;;6.53;5.57;;;;;;;;;;4993230;28;20539;-58
2022/05/09 10:29:34;;;;;;;;;;;;;;;;;;;;;
2022/05/09 10:32:51;;;;;;;5.65;5.13;;;;;;;;;;4992738;28;20061;-58
2022/05/09 10:35:45;;;;;;;5.95;5.32;;;;;;;;;;4992396;28;20034;-58
2022/05/09 10:38:40;;;;;;;7.43;6.18;;;;;;;;;;4995061;28;20093;-59
2022/05/09 10:41:27;;;;;;;5.63;4.35;;;;;;;;;;5051653;28;20044;-58
2022/05/09 10:43:57;;;;;;;6.13;5.13;;;;;;;;;;5053698;28;20531;-58
2022/05/09 10:46:49;;;;;;;5.70;5.00;;;;;;;;;;5054917;28;20021;-58
2022/05/09 10:49:45;;;;;;;7.38;5.65;;;;;;;;;;4973030;28;20049;-59
2022/05/09 10:52:17;;;;;;;7.78;5.32;;;;;;;;;;4973965;28;20373;-59
2022/05/09 10:58:06;;;;;;;5.75;5.15;;;;;;;;;;5010352;28;20095;-58
2022/05/09 11:00:52;;;;;;;9.13;5.10;;;;;;;;;;5007174;28;20155;-58
2022/05/09 11:03:57;;;;;;;7.43;4.85;;;;;;;;;;4993257;28;20492;-58
2022/05/09 11:06:41;;;;;;;12.00;4.95;;;;;;;;;;4995798;28;20115;-59
2022/05/09 11:09:27;;;;;;;5.40;4.82;;;;;;;;;;5073769;28;20029;-58
2022/05/09 11:12:20;;;;;;;5.63;4.65;;;;;;;;;;5074383;28;20063;-58
2022/05/09 11:15:11;;;;;;;4.38;3.97;;;;;;;;;;5074271;28;20055;-59
2022/05/09 11:18:09;;;;;;;5.63;5.13;;;;;;;;;;5056641;28;20043;-59
2022/05/09 11:21:05;;;;;;;5.72;5.10;;;;;;;;;;5062968;28;20024;-59
2022/05/09 11:24:09;;;;;;;;;;;;;;;;;;;;;
2022/05/09 11:27:02;;;;;;;5.72;5.13;;;;;;;;;;5074319;28;20039;-59
2022/05/09 11:30:01;;;;;;;4.45;3.40;;;;;;;;;;5072256;28;20493;-58
2022/05/09 11:32:58;;;;;;;5.50;4.95;;;;;;;;;;5074764;28;20340;-59
2022/05/09 11:35:57;;;;;;;5.32;4.70;;;;;;;;;;5055851;28;20041;-59
2022/05/09 11:39:01;;;;;;;5.18;4.65;;;;;;;;;;5062330;28;20044;-59
2022/05/09 11:44:49;;;;;;;5.65;4.07;;;;;;;;;;5047801;28;20055;-59
2022/05/09 11:47:35;;;;;;;5.93;3.88;;;;;;;;;;5071617;28;20132;-58
2022/05/09 11:50:22;;;;;;;4.88;4.38;;;;;;;;;;5071496;28;20087;-58
2022/05/09 11:56:27;;;;;;;5.97;4.47;;;;;;;;;;5071403;28;20051;-58
2022/05/09 11:59:05;;;;;;;;;;;;;;;;;;;;;
2022/05/09 12:04:41;;;;;;;4.60;4.20;;;;;;;;;;5073476;28;20154;-58
2022/05/09 12:10:38;;;;;;;5.38;4.85;;;;;;;;;;5074179;28;20033;-58
2022/05/09 12:19:16;;;;;;;5.10;4.47;;;;;;;;;;5074000;28;20077;-59
2022/05/09 12:24:59;;;;;;;4.80;4.10;;;;;;;;;;5011963;28;20492;-59
2022/05/09 12:27:51;;;;;;;4.35;3.90;;;;;;;;;;5047156;28;20045;-59
2022/05/09 12:30:43;;;;;;;10.70;5.18;;;;;;;;;;5056114;28;20450;-59
2022/05/09 12:33:36;;;;;;;7.55;4.47;;;;;;;;;;5074406;28;20344;-59
2022/05/09 12:36:29;;;;;;;4.88;4.43;;;;;;;;;;5055822;28;20454;-58
2022/05/09 12:39:13;;;;;;;5.03;4.47;;;;;;;;;;5073473;28;20162;-58
2022/05/09 12:45:02;;;;;;;4.75;4.30;;;;;;;;;;5057850;28;20025;-58
2022/05/09 12:47:47;;;;;;;9.25;4.82;;;;;;;;;;5076731;28;20462;-58
2022/05/09 12:50:30;;;;;;;6.88;4.80;;;;;;;;;;5074791;28;20553;-58
2022/05/09 12:53:32;;;;;;;6.40;4.75;;;;;;;;;;5076866;28;20047;-59
2022/05/09 12:59:16;;;;;;;4.88;4.28;;;;;;;;;;5074641;28;20059;-58
2022/05/09 13:05:34;;;;;;;4.47;4.07;;;;;;;;;;5058868;28;20029;-58
2022/05/09 13:08:49;;;;;;;4.97;3.83;;;;;;;;;;5045108;28;20058;-58
2022/05/09 13:11:06;;;;;;;5.45;4.18;;;;;;;;;;5061863;28;20032;-59
2022/05/09 13:13:34;;;;;;;4.63;4.18;;;;;;;;;;5075803;28;20031;-59
2022/05/09 13:16:04;;;;;;;4.40;4.00;;;;;;;;;;5057384;28;20036;-59
2022/05/09 13:18:48;;;;;;;4.80;4.30;;;;;;;;;;5076513;28;20025;-58
2022/05/09 13:21:26;;;;;;;6.45;4.70;;;;;;;;;;5076961;28;20028;-58
2022/05/09 13:24:15;;;;;;;4.97;4.50;;;;;;;;;;5076125;28;20025;-59
2022/05/09 13:26:59;;;;;;;6.75;4.47;;;;;;;;;;5045145;28;20032;-60
2022/05/09 13:29:52;;;;;;;5.05;4.55;;;;;;;;;;5076565;28;20025;-58
2022/05/09 13:32:38;;;;;;;4.38;3.97;;;;;;;;;;5059034;28;20459;-58
2022/05/09 13:35:24;;;;;;;5.47;4.10;;;;;;;;;;5076790;28;20016;-58
2022/05/09 13:37:59;;;;;;;5.00;4.50;;;;;;;;;;5057204;28;20029;-58
2022/05/09 13:40:37;;;;;;;4.97;4.47;;;;;;;;;;5075377;28;20450;-59
2022/05/09 13:43:14;;;;;;;4.30;3.90;;;;;;;;;;5075797;28;20082;-59
2022/05/09 13:45:51;;;;;;;4.50;3.95;;;;;;;;;;5075811;28;20029;-60
2022/05/09 13:48:39;;;;;;;4.82;4.03;;;;;;;;;;5075397;28;20020;-59
2022/05/09 14:01:09;;;;;;;5.15;3.95;;;;;;;;;;5018409;28;20079;-59
2022/05/09 14:04:22;;;;;;;5.70;4.90;;;;;;;;;;5076534;28;20028;-58
2022/05/09 14:07:37;;;;;;;5.82;3.58;;;;;;;;;;5013892;28;20025;-58
2022/05/09 14:10:06;;;;;;;5.32;3.92;;;;;;;;;;5030850;28;20116;-59
2022/05/09 14:13:10;;;;;;;4.82;4.43;;;;;;;;;;5076719;28;20033;-59
2022/05/09 14:16:11;;;;;;;4.35;3.92;;;;;;;;;;4997961;28;20531;-58
2022/05/09 14:21:57;;;;;;;4.38;3.97;;;;;;;;;;4993855;28;20061;-58
2022/05/09 14:30:46;;;;;;;6.15;4.40;;;;;;;;;;5075348;28;20497;-59
2022/05/09 14:33:38;;;;;;;4.50;3.65;;;;;;;;;;5076245;28;20033;-57
2022/05/09 14:36:35;;;;;;;5.30;3.83;;;;;;;;;;5074774;28;20036;-58
2022/05/09 14:42:47;;;;;;;;;;;;;;;;;;;;;
2022/05/09 14:45:17;;;;;;;5.28;3.42;;;;;;;;;;5075015;28;20346;-57
2022/05/09 14:51:15;;;;;;;4.30;3.90;;;;;;;;;;5074327;28;20406;-58
2022/05/09 14:54:01;;;;;;;6.72;4.43;;;;;;;;;;5074626;28;20108;-58
2022/05/09 14:59:44;;;;;;;6.15;4.13;;;;;;;;;;5073723;28;20055;-58
2022/05/09 15:05:40;;;;;;;5.20;3.60;;;;;;;;;;5073643;28;20036;-59
2022/05/09 15:08:18;;;;;;;5.75;4.90;;;;;;;;;;5071083;28;20056;-59
2022/05/09 15:11:08;;;;;;;;;;;;;;;;;;;;;
2022/05/09 15:13:57;;;;;;;6.10;4.60;;;;;;;;;;5069746;28;20040;-58
2022/05/09 15:19:29;;;;;;;4.68;3.97;;;;;;;;;;5011843;28;20037;-58
2022/05/09 15:25:14;;;;;;;4.28;3.30;;;;;;;;;;5003338;28;20033;-58
2022/05/09 15:31:37;;;;;;;5.38;4.88;;;;;;;;;;5003509;28;20484;-59
2022/05/09 15:34:29;;;;;;;5.28;3.63;;;;;;;;;;5041572;28;20045;-58
2022/05/09 15:40:00;;;;;;;4.30;3.90;;;;;;;;;;5065386;28;20426;-59
2022/05/09 15:42:49;;;;;;;4.90;3.95;;;;;;;;;;5056248;28;20037;-59
2022/05/09 15:48:40;;;;;;;4.95;3.67;;;;;;;;;;5014184;28;20049;-58
2022/05/09 15:51:32;;;;;;;5.75;3.47;;;;;;;;;;4996858;28;20101;-58
2022/05/09 15:54:11;;;;;;;4.97;2.97;;;;;;;;;;5019193;28;20034;-59
2022/05/09 15:57:19;;;;;;;4.00;3.65;;;;;;;;;;5052791;28;20377;-59
2022/05/09 16:00:09;;;;;;;5.78;3.92;;;;;;;;;;5078959;28;20112;-58
2022/05/09 16:02:37;;;;;;;4.20;3.27;;;;;;;;;;5070458;28;20526;-58
2022/05/09 16:05:20;;;;;;;4.07;3.67;;;;;;;;;;5079376;28;20606;-58
2022/05/09 16:16:40;;;;;;;4.72;4.28;;;;;;;;;;5078546;28;20459;-59
2022/05/09 16:19:10;;;;;;;5.45;4.53;;;;;;;;;;5069216;28;20067;-59
2022/05/09 16:21:39;;;;;;;4.45;3.78;;;;;;;;;;5081931;28;20412;-59
2022/05/09 16:24:25;;;;;;;4.47;4.00;;;;;;;;;;5081144;28;20043;-59
2022/05/09 16:27:11;;;;;;;4.57;4.03;;;;;;;;;;5082561;28;20390;-60
2022/05/09 16:30:08;;;;;;;5.10;4.07;;;;;;;;;;5004439;28;20038;-58
2022/05/09 16:33:09;;;;;;;4.78;4.05;;;;;;;;;;5020899;28;20030;-59
2022/05/09 16:35:55;;;;;;;3.80;3.30;;;;;;;;;;4973817;28;20128;-58
2022/05/09 16:41:43;;;;;;;5.93;4.10;;;;;;;;;;5003101;28;20453;-58
2022/05/09 16:44:53;;;;;;;4.38;3.97;;;;;;;;;;5004527;28;20022;-59
2022/05/09 16:47:53;;;;;;;5.78;4.10;;;;;;;;;;5019935;28;20053;-59
2022/05/09 16:53:23;;;;;;;4.38;3.95;;;;;;;;;;4974964;28;20035;-59
2022/05/09 16:56:02;;;;;;;;;;;;;;;;;;;;;
2022/05/09 16:58:58;;;;;;;;;;;;;;;;;;;;;
2022/05/09 17:04:58;;;;;;;5.15;3.70;;;;;;;;;;5056675;28;20079;-58
2022/05/09 17:07:53;;;;;;;;;;;;;;;;;;;;;
2022/05/09 17:10:29;;;;;;;4.75;3.90;;;;;;;;;;5054642;28;20093;-59
2022/05/09 17:13:13;;;;;;;;;;;;;;;;;;;;;
2022/05/09 17:15:45;;;;;;;4.85;4.35;;;;;;;;;;5021180;28;20090;-59
2022/05/09 17:18:38;;;;;;;4.85;4.10;;;;;;;;;;5000218;28;20498;-59
2022/05/09 17:21:32;;;;;;;4.10;3.60;;;;;;;;;;5003652;28;20034;-59
2022/05/09 17:24:31;;;;;;;6.35;3.83;;;;;;;;;;4998378;28;20030;-59
2022/05/09 17:30:15;;;;;;;5.68;4.15;;;;;;;;;;4997806;28;20037;-59
2022/05/09 17:33:02;;;;;;;4.30;3.90;;;;;;;;;;4997872;28;20034;-59
2022/05/09 17:38:44;;;;;;;4.82;3.83;;;;;;;;;;4997678;28;20041;-59
2022/05/09 17:44:42;;;;;;;4.45;3.42;;;;;;;;;;4997518;28;20096;-59
2022/05/09 17:47:43;;;;;;;3.85;3.47;;;;;;;;;;4940228;29;20091;-59
2022/05/09 17:50:22;;;;;;;5.57;3.60;;;;;;;;;;4925036;29;20041;-59
2022/05/09 17:52:59;;;;;;;4.30;3.50;;;;;;;;;;4959248;28;20051;-59
2022/05/09 17:59:16;;;;;;;3.65;3.20;;;;;;;;;;4992150;28;20121;-59
2022/05/09 18:05:02;;;;;;;4.55;4.03;;;;;;;;;;4989909;28;20030;-60
2022/05/09 18:08:08;;;;;;;7.28;4.93;;;;;;;;;;4999249;28;20043;-60
2022/05/09 18:11:07;;;;;;;4.20;3.67;;;;;;;;;;4999349;28;20081;-60
2022/05/09 18:16:53;;;;;;;;;;;;;;;;;;;;;
2022/05/09 18:19:32;;;;;;;4.43;3.60;;;;;;;;;;5025486;28;20609;-60
2022/05/09 18:22:28;;;;;;;4.15;3.53;;;;;;;;;;5021121;28;20060;-59
2022/05/09 18:25:08;;;;;;;;;;;;;;;;;;5041885;28;20037;-60
2022/05/09 18:30:37;;;;;;;6.60;3.65;;;;;;;;;;5029914;28;20072;-60
2022/05/09 18:33:36;;;;;;;4.38;3.85;;;;;;;;;;5019621;28;20488;-59
2022/05/09 18:36:18;;;;;;;4.13;3.72;;;;;;;;;;5013959;28;20040;-60
2022/05/09 18:52:34;;;;;;;4.40;4.00;;;;;;;;;;4991435;28;20065;-60
2022/05/09 18:54:49;;;;;;;5.25;4.03;;;;;;;;;;5025900;28;20128;-60
2022/05/09 18:57:44;;;;;;;;;;;;;;;;;;;;;
2022/05/09 19:00:41;;;;;;;7.35;4.88;;;;;;;;;;5028003;28;20124;-58
2022/05/09 19:03:08;;;;;;;6.22;4.43;;;;;;;;;;4960642;29;20067;-59
2022/05/09 19:05:59;;;;;;;5.43;4.00;;;;;;;;;;4961773;29;20144;-59
2022/05/09 19:11:36;;;;;;;;;;;;;;;;;;5044883;28;20036;-59
2022/05/09 19:23:32;;;;;;;8.95;4.82;;;;;;;;;;5050981;28;20045;-59
2022/05/09 19:26:35;;;;;;;6.20;4.25;;;;;;;;;;5057269;28;20068;-59
2022/05/09 19:29:20;;;;;;;5.00;3.95;;;;;;;;;;5005985;28;20040;-59
2022/05/09 19:35:20;;;;;;;6.90;4.80;;;;;;;;;;5026518;28;20045;-59
2022/05/09 19:38:11;;;;;;;6.90;4.47;;;;;;;;;;5059514;28;20089;-59
2022/05/09 19:41:11;;;;;;;10.70;4.90;;;;;;;;;;5059286;28;20029;-60
2022/05/09 19:43:47;;;;;;;4.63;3.92;;;;;;;;;;5058779;28;20483;-59
2022/05/09 19:49:35;;;;;;;6.50;4.68;;;;;;;;;;5030319;28;20044;-59
2022/05/09 19:55:40;;;;;;;7.78;4.68;;;;;;;;;;5063278;28;20059;-59
2022/05/09 20:01:15;;;;;;;5.32;4.57;;;;;;;;;;5066983;28;20051;-60
2022/05/09 20:04:10;;;;;;;;;;;;;;;;;;;;;
2022/05/09 20:06:37;;;;;;;4.18;3.78;;;;;;;;;;5072377;28;20447;-59
2022/05/09 20:09:31;;;;;;;5.38;4.88;;;;;;;;;;5083625;28;20450;-59
2022/05/09 20:15:42;;;;;;;8.47;4.90;;;;;;;;;;5022261;28;20064;-59
2022/05/09 20:18:16;;;;;;;7.70;4.35;;;;;;;;;;5021363;28;20307;-59
2022/05/09 20:21:03;;;;;;;5.63;4.55;;;;;;;;;;5022654;28;20058;-59
2022/05/09 20:23:41;;;;;;;4.93;4.38;;;;;;;;;;5061314;28;20063;-59
2022/05/09 20:31:56;;;;;;;4.97;4.45;;;;;;;;;;5083812;28;20035;-59
2022/05/09 20:34:36;;;;;;;5.22;4.35;;;;;;;;;;5064536;28;20417;-59
2022/05/09 20:37:21;;;;;;;8.98;4.97;;;;;;;;;;5064896;28;20041;-59
2022/05/09 20:40:10;;;;;;;4.35;3.78;;;;;;;;;;5083132;28;20024;-60
2022/05/09 20:42:51;;;;;;;6.18;5.13;;;;;;;;;;5082017;28;20029;-59
2022/05/09 20:45:18;;;;;;;5.30;4.70;;;;;;;;;;5083256;28;20025;-59
2022/05/09 20:51:06;;;;;;;5.63;4.50;;;;;;;;;;5023689;28;20037;-59
2022/05/09 20:54:01;;;;;;;5.65;4.53;;;;;;;;;;5022110;28;20470;-59
2022/05/09 21:05:51;;;;;;;5.18;4.68;;;;;;;;;;5020804;28;20038;-59
2022/05/09 21:08:41;;;;;;;6.57;5.78;;;;;;;;;;5016468;28;20045;-59
2022/05/09 21:11:40;;;;;;;;;;;;;;;;;;;;;
2022/05/09 21:14:07;;;;;;;5.53;5.00;;;;;;;;;;5000214;28;20109;-59
2022/05/09 21:17:05;;;;;;;11.70;6.97;;;;;;;;;;4996870;28;20026;-59
2022/05/09 21:22:53;;;;;;;;;;;;;;;;;;;;;
2022/05/09 21:25:40;;;;;;;6.10;5.40;;;;;;;;;;5017552;28;20532;-57
2022/05/09 21:28:26;;;;;;;6.55;5.95;;;;;;;;;;5022209;28;20033;-57
2022/05/09 21:31:11;;;;;;;6.65;5.97;;;;;;;;;;5022475;28;20093;-57
2022/05/09 21:33:53;;;;;;;6.22;5.63;;;;;;;;;;5019373;28;20488;-57
2022/05/09 21:43:01;;;;;;;6.88;6.22;;;;;;;;;;5057401;28;20032;-58
2022/05/09 21:48:42;;;;;;;8.52;7.63;;;;;;;;;;5061547;28;20102;-58
2022/05/09 21:51:17;;;;;;;8.07;6.95;;;;;;;;;;5063599;28;20021;-58
2022/05/09 21:57:23;;;;;;;8.45;7.45;;;;;;;;;;5020093;28;20038;-58
2022/05/09 22:00:08;;;;;;;8.73;7.45;;;;;;;;;;5062117;28;20025;-58
2022/05/09 22:03:15;;;;;;;;;;;;;;;;;;;;;
2022/05/09 22:12:33;;;;;;;8.35;7.57;;;;;;;;;;5074989;28;20047;-58
2022/05/09 22:15:03;;;;;;;8.90;8.00;;;;;;;;;;5082848;28;20406;-58
2022/05/09 22:17:29;;;;;;;8.45;7.63;;;;;;;;;;5083343;28;20029;-58
2022/05/09 22:20:17;;;;;;;8.70;7.90;;;;;;;;;;5066011;28;20096;-58
2022/05/09 22:23:17;;;;;;;8.20;7.13;;;;;;;;;;5083651;28;20020;-58
2022/05/09 22:26:04;;;;;;;7.25;6.47;;;;;;;;;;5061229;28;20094;-58
2022/05/09 22:31:50;;;;;;;13.80;7.22;;;;;;;;;;5041287;28;20040;-58
2022/05/09 22:34:40;;;;;;;8.13;7.32;;;;;;;;;;5059452;28;20037;-58
2022/05/09 22:37:24;;;;;;;9.63;6.88;;;;;;;;;;5060028;28;20040;-58
2022/05/09 22:40:19;;;;;;;8.57;7.78;;;;;;;;;;5058905;28;20077;-58
2022/05/09 22:43:12;;;;;;;7.22;6.53;;;;;;;;;;5060450;28;20040;-58
2022/05/09 22:49:12;;;;;;;8.02;7.22;;;;;;;;;;5058463;28;20064;-58
2022/05/09 22:51:50;;;;;;;8.25;7.43;;;;;;;;;;5061658;28;20033;-58
2022/05/09 22:54:41;;;;;;;;;;;;;;;;;;;;;
2022/05/09 22:57:33;;;;;;;8.93;8.00;;;;;;;;;;5071188;28;20123;-58
2022/05/09 23:03:22;;;;;;;9.32;8.40;;;;;;;;;;5056563;28;20125;-58
2022/05/09 23:05:55;;;;;;;8.60;7.73;;;;;;;;;;5080365;28;20045;-58
2022/05/09 23:08:40;;;;;;;9.15;8.07;;;;;;;;;;5083662;28;20274;-58
2022/05/09 23:14:10;;;;;;;9.15;8.25;;;;;;;;;;5081705;28;20514;-58
2022/05/09 23:22:39;;;;;;;9.77;8.68;;;;;;;;;;5068941;28;20086;-57
2022/05/09 23:25:12;;;;;;;10.48;8.85;;;;;;;;;;5066214;28;20032;-58
2022/05/09 23:30:49;;;;;;;10.30;9.38;;;;;;;;;;5083689;28;20031;-58
2022/05/09 23:36:36;;;;;;;12.85;10.07;;;;;;;;;;5041611;28;20097;-58
2022/05/09 23:39:26;;;;;;;10.25;9.25;;;;;;;;;;5042032;28;20507;-58
2022/05/09 23:42:29;;;;;;;14.10;8.38;;;;;;;;;;5041773;28;20045;-58
2022/05/09 23:45:12;;;;;;;10.38;9.32;;;;;;;;;;5040440;28;20037;-58
2022/05/09 23:47:56;;;;;;;10.52;9.32;;;;;;;;;;5068226;28;20056;-58
2022/05/09 23:50:27;;;;;;;8.93;8.02;;;;;;;;;;5082469;28;20434;-58
2022/05/09 23:53:02;;;;;;;9.63;8.73;;;;;;;;;;5070576;28;20114;-58
2022/05/09 23:56:00;;;;;;;10.20;9.30;;;;;;;;;;5065101;28;20028;-58
2022/05/09 23:58:42;;;;;;;9.95;8.43;;;;;;;;;;5059623;28;20094;-58
